Weather History for Buckland, AK

Change the Weather History Date:

Thursday, October 3, 2013

  Actual Average (PASK) Record (PASK)
Temperature  
Mean Temperature 32 °F -  
Max Temperature 37 °F 34 °F 46 °F (2010)
Min Temperature 28 °F 26 °F 21 °F (1996)
Degree Days  
Heating Degree Days 32    
Moisture  
Dew Point 25 °F    
Average Humidity 74    
Maximum Humidity 86    
Minimum Humidity 60    
Precipitation  
Precipitation 0.00 in - - ()
Sea Level Pressure  
Sea Level Pressure 29.91 in    
Wind  
Wind Speed 5 mph (NW)    
Max Wind Speed 9 mph    
Max Gust Speed -    
Visibility 10 miles    
Events      
Averages and records for this station are not official NWS values.
T = Trace of Precipitation, MM = Missing Value Source: NWS Daily Summary

Daily Weather History Graph

Daily Weather History Graph

Search for Another Location

Airport:

Trip Planner

Search our weather history database for the weather conditions in past years. The results will help you decide how hot, cold, wet, or windy it might be!

Date:

Astronomy

Oct. 03, 2013 Rise Set
Actual Time 9:03 AM AKDT 8:01 PM AKDT
Civil Twilight 8:12 AM AKDT 8:52 PM AKDT
Nautical Twilight 7:12 AM AKDT 9:52 PM AKDT
Astronomical Twilight 6:06 AM AKDT 10:57 PM AKDT
Moon 7:34 AM AKDT (10/3) 7:20 PM AKDT (10/3)
Length of Visible Light 12h 40m
Length of Day
10h 58m
Waning Crescent, 2% of the Moon is Illuminated
Oct 3
Waning Crescent
Oct 4
New
Oct 11
First Quarter
Oct 18
Full
Oct 26
Last Quarter

Hourly Weather History & Observations

Time (AKDT) Temp. Windchill Dew Point Humidity Pressure Visibility Wind Dir Wind Speed Gust Speed Precip Events Conditions
12:16 AM 30.2 °F 24.3 °F 24.8 °F 80% 29.98 in 10.0 mi WNW 5.8 mph - N/A   Overcast
12:36 AM 30.2 °F 25.4 °F 23.0 °F 75% 29.98 in 10.0 mi NW 4.6 mph - N/A   Overcast
12:56 AM 30.2 °F 24.3 °F 24.8 °F 80% 29.98 in 10.0 mi NW 5.8 mph - N/A   Overcast
1:16 AM 30.2 °F 25.4 °F 23.0 °F 75% 29.98 in 10.0 mi NW 4.6 mph - N/A   Overcast
1:36 AM 30.2 °F 25.4 °F 23.0 °F 75% 29.98 in 10.0 mi NW 4.6 mph - N/A   Overcast
1:56 AM 30.2 °F 24.3 °F 24.8 °F 80% 29.97 in 10.0 mi NW 5.8 mph - N/A   Overcast
2:16 AM 30.2 °F 24.3 °F 23.0 °F 75% 29.97 in 10.0 mi NW 5.8 mph - N/A   Overcast
2:36 AM 30.2 °F 23.4 °F 26.6 °F 86% 29.97 in 10.0 mi NW 6.9 mph - N/A   Overcast
2:56 AM 30.2 °F 25.4 °F 24.8 °F 80% 29.97 in 10.0 mi NW 4.6 mph - N/A   Overcast
3:16 AM 30.2 °F - 24.8 °F 80% 29.97 in 10.0 mi Calm Calm - N/A   Overcast
3:36 AM 30.2 °F 26.7 °F 24.8 °F 80% 29.97 in 10.0 mi NNW 3.5 mph - N/A   Overcast
3:56 AM 30.2 °F 25.4 °F 24.8 °F 80% 29.96 in 10.0 mi NW 4.6 mph - N/A   Overcast
4:16 AM 30.2 °F 26.7 °F 24.8 °F 80% 29.96 in 10.0 mi NNW 3.5 mph - N/A   Overcast
4:36 AM 30.2 °F 25.4 °F 23.0 °F 75% 29.96 in 10.0 mi NW 4.6 mph - N/A   Overcast
4:56 AM 30.2 °F 26.7 °F 23.0 °F 75% 29.96 in 10.0 mi NNW 3.5 mph - N/A   Overcast
5:16 AM 30.2 °F - 24.8 °F 80% 29.95 in 10.0 mi Calm Calm - N/A   Overcast
5:36 AM 30.2 °F 25.4 °F 24.8 °F 80% 29.95 in 10.0 mi WNW 4.6 mph - N/A   Overcast
5:56 AM 30.2 °F - 24.8 °F 80% 29.95 in 10.0 mi Calm Calm - N/A   Overcast
6:16 AM 30.2 °F 24.3 °F 24.8 °F 80% 29.95 in 10.0 mi WNW 5.8 mph - N/A   Overcast
6:36 AM 30.2 °F 26.7 °F 24.8 °F 80% 29.95 in 10.0 mi WNW 3.5 mph - N/A   Overcast
6:56 AM 30.2 °F 26.7 °F 24.8 °F 80% 29.94 in 10.0 mi NW 3.5 mph - N/A   Overcast
7:16 AM 30.2 °F 26.7 °F 24.8 °F 80% 29.94 in 10.0 mi NNW 3.5 mph - N/A   Overcast
7:36 AM 30.2 °F 26.7 °F 24.8 °F 80% 29.94 in 10.0 mi NW 3.5 mph - N/A   Overcast
7:56 AM 30.2 °F 26.7 °F 26.6 °F 86% 29.93 in 10.0 mi WNW 3.5 mph - N/A   Overcast
8:16 AM 30.2 °F - 24.8 °F 80% 29.93 in 10.0 mi Calm Calm - N/A   Overcast
8:36 AM 30.2 °F 25.4 °F 24.8 °F 80% 29.93 in 10.0 mi WNW 4.6 mph - N/A   Overcast
8:56 AM 28.4 °F - 24.8 °F 86% 29.93 in 10.0 mi Calm Calm - N/A   Overcast
9:16 AM 28.4 °F - 24.8 °F 86% 29.93 in 10.0 mi Calm Calm - N/A   Overcast
9:56 AM 28.4 °F - 24.8 °F 86% 29.93 in 10.0 mi Calm Calm - N/A   Overcast
10:16 AM 30.2 °F - 24.8 °F 80% 29.92 in 10.0 mi Calm Calm - N/A   Overcast
10:36 AM 30.2 °F - 26.6 °F 86% 29.92 in 10.0 mi Calm Calm - N/A   Overcast
10:56 AM 30.2 °F - 26.6 °F 86% 29.92 in 10.0 mi Calm Calm - N/A   Overcast
11:16 AM 32.0 °F - 26.6 °F 80% 29.91 in 10.0 mi Calm Calm - N/A   Overcast
11:36 AM 33.8 °F 30.8 °F 26.6 °F 75% 29.91 in 10.0 mi WNW 3.5 mph - N/A   Overcast
11:56 AM 33.8 °F 29.6 °F 26.6 °F 75% 29.91 in 10.0 mi NW 4.6 mph - N/A   Overcast
12:16 PM 33.8 °F 28.6 °F 26.6 °F 75% 29.91 in 10.0 mi NNW 5.8 mph - N/A   Overcast
12:36 PM 33.8 °F 28.6 °F 26.6 °F 75% 29.90 in 10.0 mi NW 5.8 mph - N/A   Overcast
12:56 PM 35.6 °F 31.7 °F 26.6 °F 70% 29.90 in 10.0 mi NNW 4.6 mph - N/A   Overcast
1:16 PM 35.6 °F 29.9 °F 26.6 °F 70% 29.90 in 10.0 mi NW 6.9 mph - N/A   Overcast
1:36 PM 35.6 °F 29.2 °F 26.6 °F 70% 29.90 in 10.0 mi NW 8.1 mph - N/A   Overcast
1:56 PM 37.4 °F 30.8 °F 24.8 °F 60% 29.90 in 10.0 mi NNW 9.2 mph - N/A   Overcast
2:16 PM 37.4 °F 31.4 °F 24.8 °F 60% 29.89 in 10.0 mi NNW 8.1 mph - N/A   Overcast
2:36 PM 37.4 °F 31.4 °F 24.8 °F 60% 29.89 in 10.0 mi North 8.1 mph - N/A   Overcast
2:56 PM 37.4 °F 31.4 °F 26.6 °F 65% 29.88 in 10.0 mi NW 8.1 mph - N/A   Overcast
3:16 PM 37.4 °F 31.4 °F 24.8 °F 60% 29.88 in 10.0 mi NNW 8.1 mph - N/A   Overcast
3:36 PM 37.4 °F 31.4 °F 24.8 °F 60% 29.87 in 10.0 mi North 8.1 mph - N/A   Overcast
3:56 PM 37.4 °F 30.8 °F 24.8 °F 60% 29.87 in 10.0 mi North 9.2 mph - N/A   Overcast
4:16 PM 37.4 °F 32.1 °F 24.8 °F 60% 29.86 in 10.0 mi North 6.9 mph - N/A   Overcast
4:36 PM 37.4 °F 32.8 °F 24.8 °F 60% 29.86 in 10.0 mi NNW 5.8 mph - N/A   Overcast
4:56 PM 37.4 °F 33.8 °F 24.8 °F 60% 29.86 in 10.0 mi North 4.6 mph - N/A   Overcast
5:16 PM 37.4 °F 32.1 °F 24.8 °F 60% 29.85 in 10.0 mi North 6.9 mph - N/A   Overcast
5:36 PM 37.4 °F 32.8 °F 24.8 °F 60% 29.85 in 10.0 mi NNW 5.8 mph - N/A   Overcast
5:56 PM 37.4 °F 30.8 °F 26.6 °F 65% 29.85 in 10.0 mi NNW 9.2 mph - N/A   Overcast
6:16 PM 37.4 °F 31.4 °F 26.6 °F 65% 29.85 in 10.0 mi North 8.1 mph - N/A   Overcast
6:36 PM 37.4 °F 33.8 °F 26.6 °F 65% 29.85 in 10.0 mi North 4.6 mph - N/A   Overcast
6:56 PM 37.4 °F 32.8 °F 26.6 °F 65% 29.85 in 10.0 mi NNW 5.8 mph - N/A   Overcast
7:16 PM 35.6 °F 30.7 °F 26.6 °F 70% 29.85 in 10.0 mi NNW 5.8 mph - N/A   Overcast
7:36 PM 35.6 °F 30.7 °F 26.6 °F 70% 29.85 in 10.0 mi NNW 5.8 mph - N/A   Overcast
8:36 PM 35.6 °F 30.7 °F 26.6 °F 70% 29.85 in 10.0 mi NNW 5.8 mph - N/A   Overcast
8:56 PM 35.6 °F 32.8 °F 24.8 °F 65% 29.85 in 10.0 mi NNW 3.5 mph - N/A   Overcast
9:16 PM 33.8 °F 28.6 °F 26.6 °F 75% 29.85 in 10.0 mi NW 5.8 mph - N/A   Overcast
9:36 PM 33.8 °F 28.6 °F 26.6 °F 75% 29.85 in 10.0 mi WNW 5.8 mph - N/A   Overcast
9:56 PM 33.8 °F 28.6 °F 26.6 °F 75% 29.85 in 10.0 mi WNW 5.8 mph - N/A   Overcast
10:16 PM 33.8 °F 30.8 °F 26.6 °F 75% 29.85 in 10.0 mi NW 3.5 mph - N/A   Overcast
10:36 PM 33.8 °F 30.8 °F 24.8 °F 70% 29.85 in 10.0 mi NW 3.5 mph - N/A   Overcast
10:56 PM 33.8 °F 30.8 °F 24.8 °F 70% 29.85 in 10.0 mi WNW 3.5 mph - N/A   Overcast
11:16 PM 33.8 °F 28.6 °F 26.6 °F 75% 29.85 in 10.0 mi NW 5.8 mph - N/A   Overcast
11:36 PM 33.8 °F 28.6 °F 24.8 °F 70% 29.86 in 10.0 mi NW 5.8 mph - N/A   Overcast
11:56 PM 33.8 °F 28.6 °F 24.8 °F 70% 29.86 in 10.0 mi NW 5.8 mph - N/A   Overcast